createdAt,value
2022-10-08T05:36:52.041Z,6.50
2022-10-08T05:37:53.017Z,8.20
2022-10-08T05:38:53.024Z,7.80
2022-10-08T05:39:53.021Z,5.20
2022-10-08T05:40:52.995Z,6.20
2022-10-08T05:41:52.958Z,6.00
2022-10-08T05:42:52.957Z,9.20
2022-10-08T05:43:52.954Z,6.90
2022-10-08T05:44:52.941Z,7.70
2022-10-08T05:45:52.914Z,5.90
2022-10-08T05:46:52.962Z,8.50
2022-10-08T05:47:52.913Z,7.20
2022-10-08T05:48:52.879Z,7.20
2022-10-08T05:49:52.870Z,5.60
2022-10-08T05:50:52.867Z,5.00
2022-10-08T05:51:52.839Z,6.40
2022-10-08T05:52:52.828Z,4.70
2022-10-08T05:53:52.828Z,6.40
2022-10-08T05:54:52.813Z,5.10
2022-10-08T05:55:52.796Z,10.40
2022-10-08T05:56:52.781Z,6.10
2022-10-08T05:57:52.768Z,9.00
2022-10-08T05:58:52.759Z,7.10
2022-10-08T05:59:52.736Z,8.00
2022-10-08T06:00:52.721Z,6.10
2022-10-08T06:01:52.710Z,6.10
2022-10-08T06:02:52.723Z,4.70
2022-10-08T06:03:52.708Z,5.50
2022-10-08T06:04:52.738Z,5.00
2022-10-08T06:05:52.673Z,7.30
2022-10-08T06:06:52.647Z,4.90
2022-10-08T06:07:52.643Z,7.70
2022-10-08T06:08:52.619Z,5.90
2022-10-08T06:09:52.633Z,6.70
2022-10-08T06:10:52.597Z,7.30
2022-10-08T06:11:52.608Z,5.40
2022-10-08T06:12:52.582Z,5.70
2022-10-08T06:13:52.557Z,6.60
2022-10-08T06:14:52.552Z,5.70
2022-10-08T06:15:52.569Z,5.60
2022-10-08T06:16:52.531Z,6.10
2022-10-08T06:17:52.502Z,8.30
2022-10-08T06:18:52.521Z,6.80
2022-10-08T06:19:52.501Z,4.70
2022-10-08T06:20:52.465Z,8.70
2022-10-08T06:21:52.454Z,5.00
2022-10-08T06:22:52.451Z,7.90
2022-10-08T06:23:52.447Z,6.60
2022-10-08T06:24:52.463Z,6.70
2022-10-08T06:25:52.412Z,14.50
2022-10-08T06:26:52.387Z,7.50
2022-10-08T06:27:52.380Z,8.90
2022-10-08T06:28:52.398Z,6.20
2022-10-08T06:29:52.353Z,8.00
2022-10-08T06:30:52.355Z,7.70
2022-10-08T06:31:52.415Z,11.90
2022-10-08T06:32:52.316Z,9.50
2022-10-08T06:33:52.316Z,7.50
2022-10-08T06:34:52.285Z,9.30
2022-10-08T06:35:52.307Z,8.00
2022-10-08T06:36:52.291Z,10.50
2022-10-08T06:37:52.240Z,20.30
2022-10-08T06:38:52.233Z,24.90
2022-10-08T06:39:52.215Z,28.70
2022-10-08T06:40:52.229Z,23.90
2022-10-08T06:41:52.195Z,15.60
2022-10-08T06:42:52.185Z,12.00
2022-10-08T06:43:52.169Z,9.70
2022-10-08T06:44:52.156Z,10.10
2022-10-08T06:45:52.210Z,8.10
2022-10-08T06:46:52.304Z,7.30
2022-10-08T06:47:52.126Z,10.80
2022-10-08T06:48:52.093Z,13.40
2022-10-08T06:49:52.077Z,9.90
2022-10-08T06:50:52.109Z,9.60
2022-10-08T06:51:52.062Z,10.10
2022-10-08T06:52:52.051Z,6.80
2022-10-08T06:53:52.029Z,8.20
2022-10-08T06:54:52.032Z,8.70
2022-10-08T06:55:52.042Z,10.00
2022-10-08T06:56:51.983Z,9.10
2022-10-08T06:57:52.005Z,9.80
2022-10-08T06:58:51.991Z,8.70
2022-10-08T06:59:51.972Z,9.10
2022-10-08T07:00:51.995Z,7.20
2022-10-08T07:01:58.506Z,10.60
2022-10-08T07:02:51.901Z,4.80
2022-10-08T07:03:51.909Z,9.60
2022-10-08T07:04:51.886Z,6.40
2022-10-08T07:05:51.866Z,7.10
2022-10-08T07:06:51.861Z,7.90
2022-10-08T07:07:51.828Z,10.30
2022-10-08T07:08:51.828Z,6.00
2022-10-08T07:09:51.810Z,6.50
2022-10-08T07:10:51.791Z,6.60
2022-10-08T07:11:51.786Z,7.00
2022-10-08T07:12:51.786Z,8.10
2022-10-08T07:13:51.747Z,7.00
2022-10-08T07:14:51.734Z,5.20
2022-10-08T07:15:51.769Z,7.70
2022-10-08T07:16:51.782Z,9.10
2022-10-08T07:17:51.694Z,9.20
2022-10-08T07:18:51.679Z,6.50
2022-10-08T07:19:51.690Z,8.40
2022-10-08T07:20:51.673Z,8.10
2022-10-08T07:21:51.653Z,11.80
2022-10-08T07:22:51.626Z,7.30
2022-10-08T07:23:51.610Z,6.30
2022-10-08T07:24:51.595Z,5.70
2022-10-08T07:25:51.603Z,7.50
2022-10-08T07:26:51.574Z,10.00
2022-10-08T07:27:51.576Z,7.60
2022-10-08T07:28:51.538Z,6.80
2022-10-08T07:29:51.557Z,9.10
2022-10-08T07:30:51.513Z,6.60
2022-10-08T07:31:51.520Z,5.90
2022-10-08T07:32:51.498Z,7.30
2022-10-08T07:33:51.476Z,6.60
2022-10-08T07:34:51.484Z,9.60
2022-10-08T07:35:51.475Z,8.40
2022-10-08T07:36:51.433Z,9.80
2022-10-08T07:37:51.431Z,10.30
2022-10-08T07:38:51.421Z,9.30
2022-10-08T07:39:51.403Z,8.40
2022-10-08T07:40:51.379Z,7.50
2022-10-08T07:41:51.364Z,10.60
2022-10-08T07:42:51.384Z,8.80
2022-10-08T07:43:51.337Z,8.00
2022-10-08T07:44:51.323Z,7.00
2022-10-08T07:45:51.362Z,8.00
2022-10-08T07:46:51.298Z,6.80
2022-10-08T07:47:51.326Z,5.20
2022-10-08T07:48:51.277Z,7.40
2022-10-08T07:49:51.277Z,6.50
2022-10-08T07:50:51.243Z,6.80
2022-10-08T07:51:51.228Z,7.30
2022-10-08T07:52:51.241Z,9.10
2022-10-08T07:53:51.230Z,7.20
2022-10-08T07:54:51.202Z,5.70
2022-10-08T07:55:51.182Z,7.80
2022-10-08T07:56:51.175Z,10.50
2022-10-08T07:57:51.160Z,8.30
2022-10-08T07:58:51.169Z,5.50
2022-10-08T07:59:51.151Z,6.20
2022-10-08T08:00:51.209Z,7.90
2022-10-08T08:01:51.159Z,8.60
2022-10-08T08:02:51.117Z,6.00
2022-10-08T08:03:51.107Z,8.10
2022-10-08T08:04:51.066Z,7.00
2022-10-08T08:05:51.051Z,6.70
2022-10-08T08:06:51.037Z,6.60
2022-10-08T08:07:53.230Z,6.00
2022-10-08T08:08:51.028Z,9.80
2022-10-08T08:09:50.998Z,6.30
2022-10-08T08:10:50.981Z,8.80
2022-10-08T08:11:58.656Z,6.30
2022-10-08T08:12:51.017Z,8.60
2022-10-08T08:13:53.625Z,9.40
2022-10-08T08:14:50.975Z,6.20
2022-10-08T08:15:50.959Z,8.70
2022-10-08T08:16:51.411Z,8.60
2022-10-08T08:17:50.970Z,9.30
2022-10-08T08:18:50.915Z,7.60
2022-10-08T08:19:50.890Z,9.10
2022-10-08T08:20:50.873Z,8.50
2022-10-08T08:21:50.905Z,7.80
2022-10-08T08:22:50.818Z,7.70
2022-10-08T08:23:50.843Z,7.50
2022-10-08T08:24:50.835Z,7.80
2022-10-08T08:25:50.864Z,7.70
2022-10-08T08:26:55.517Z,11.70
2022-10-08T08:27:50.792Z,8.00
2022-10-08T08:28:50.795Z,7.90
2022-10-08T08:29:50.792Z,7.90
2022-10-08T08:30:50.724Z,6.50
2022-10-08T08:31:50.944Z,8.50
2022-10-08T08:32:50.695Z,8.60
2022-10-08T08:33:50.675Z,6.30
2022-10-08T08:34:50.684Z,9.60
2022-10-08T08:35:50.758Z,8.80
2022-10-08T08:36:50.646Z,6.50
2022-10-08T08:37:50.694Z,6.30
2022-10-08T08:38:51.114Z,6.60
2022-10-08T08:39:50.599Z,9.40
2022-10-08T08:40:50.628Z,9.20
2022-10-08T08:41:50.585Z,9.30
2022-10-08T08:42:50.598Z,12.30
2022-10-08T08:43:50.572Z,9.70
2022-10-08T08:44:50.576Z,8.80
2022-10-08T08:45:50.630Z,6.10
2022-10-08T08:46:50.509Z,9.00
2022-10-08T08:47:50.521Z,9.80
2022-10-08T08:48:50.490Z,8.80
2022-10-08T08:49:50.503Z,6.40
2022-10-08T08:50:50.486Z,8.40
2022-10-08T08:51:50.499Z,5.80
2022-10-08T08:52:50.632Z,5.50
2022-10-08T08:53:50.430Z,6.60
2022-10-08T08:54:50.426Z,7.60
2022-10-08T08:55:50.399Z,11.60
2022-10-08T08:56:50.403Z,6.80
2022-10-08T08:57:50.366Z,11.20
2022-10-08T08:58:50.781Z,6.90
2022-10-08T08:59:50.373Z,8.30
2022-10-08T09:00:50.459Z,8.20
2022-10-08T09:01:50.585Z,9.10
2022-10-08T09:02:50.394Z,8.70
2022-10-08T09:03:51.084Z,8.30
2022-10-08T09:04:50.336Z,7.70
2022-10-08T09:05:50.362Z,5.60
2022-10-08T09:06:50.312Z,8.50
2022-10-08T09:07:50.606Z,6.90
2022-10-08T09:08:50.365Z,8.90
2022-10-08T09:09:50.416Z,9.40
2022-10-08T09:10:50.880Z,10.00
2022-10-08T09:11:50.789Z,9.60
2022-10-08T09:12:59.364Z,8.50
2022-10-08T09:13:50.635Z,6.30
2022-10-08T09:14:50.204Z,9.50
2022-10-08T09:15:50.158Z,6.10
2022-10-08T09:16:50.213Z,5.20
2022-10-08T09:17:50.126Z,7.70
2022-10-08T09:18:50.094Z,7.60
2022-10-08T09:19:50.082Z,6.60
2022-10-08T09:20:51.017Z,9.50
2022-10-08T09:21:50.253Z,8.30
2022-10-08T09:22:50.429Z,6.40
2022-10-08T09:23:50.153Z,6.60
2022-10-08T09:24:50.024Z,5.70
2022-10-08T09:25:50.022Z,8.30
2022-10-08T09:26:49.993Z,8.00
2022-10-08T09:27:50.000Z,8.60
2022-10-08T09:28:49.963Z,8.50
2022-10-08T09:29:49.950Z,7.50
2022-10-08T09:30:50.061Z,10.20
2022-10-08T09:31:49.929Z,5.70
2022-10-08T09:32:50.159Z,5.60
2022-10-08T09:33:49.911Z,7.30
2022-10-08T09:34:49.908Z,6.10
2022-10-08T09:35:49.891Z,8.50
2022-10-08T09:36:49.878Z,9.50
2022-10-08T09:37:49.916Z,7.60
2022-10-08T09:38:49.928Z,7.00
2022-10-08T09:39:49.825Z,10.10
2022-10-08T09:40:49.820Z,7.70
2022-10-08T09:41:49.805Z,8.00
2022-10-08T09:42:50.133Z,7.10
2022-10-08T09:43:49.778Z,7.80
2022-10-08T09:44:49.755Z,8.20
2022-10-08T09:45:49.796Z,8.00
2022-10-08T09:46:49.737Z,14.70
2022-10-08T09:47:49.718Z,10.00
2022-10-08T09:48:49.729Z,9.40
2022-10-08T09:49:49.716Z,5.70
2022-10-08T09:50:49.674Z,7.90
2022-10-08T09:51:49.672Z,9.60
2022-10-08T09:52:49.924Z,10.50
2022-10-08T09:53:49.651Z,8.40
2022-10-08T09:54:49.645Z,8.50
2022-10-08T09:55:49.614Z,8.40
2022-10-08T09:56:49.780Z,9.60
2022-10-08T09:57:49.612Z,7.40
2022-10-08T09:58:49.609Z,10.30
2022-10-08T09:59:49.585Z,11.50
2022-10-08T10:00:49.554Z,7.70
2022-10-08T10:01:49.706Z,7.30
2022-10-08T10:02:49.889Z,10.40
2022-10-08T10:03:49.542Z,7.60
2022-10-08T10:04:49.495Z,8.40
2022-10-08T10:05:49.479Z,8.30
2022-10-08T10:06:49.483Z,6.20
2022-10-08T10:07:49.477Z,8.50
2022-10-08T10:08:49.459Z,10.40
2022-10-08T10:09:49.443Z,11.10
2022-10-08T10:10:49.434Z,8.80
2022-10-08T10:11:49.433Z,8.20
2022-10-08T10:12:50.048Z,9.50
2022-10-08T10:13:49.377Z,11.10
2022-10-08T10:14:49.371Z,8.20
2022-10-08T10:15:49.365Z,10.20
2022-10-08T10:16:49.394Z,7.30
2022-10-08T10:17:49.344Z,12.10
2022-10-08T10:18:49.329Z,13.50
2022-10-08T10:19:49.308Z,7.10
2022-10-08T10:20:49.297Z,7.40
2022-10-08T10:21:49.280Z,8.50
2022-10-08T10:22:49.795Z,9.20
2022-10-08T10:23:49.254Z,8.30
2022-10-08T10:24:49.245Z,8.60
2022-10-08T10:25:49.232Z,11.90
2022-10-08T10:26:49.207Z,8.70
2022-10-08T10:27:49.232Z,7.40
2022-10-08T10:28:49.248Z,9.60
2022-10-08T10:29:49.190Z,9.00
2022-10-08T10:30:49.207Z,11.40
2022-10-08T10:31:49.147Z,9.50
2022-10-08T10:32:49.781Z,7.60
2022-10-08T10:33:49.129Z,10.00
2022-10-08T10:34:49.122Z,9.60
2022-10-08T10:35:49.105Z,9.20
2022-10-08T10:36:49.077Z,11.90
2022-10-08T10:37:49.068Z,7.20
2022-10-08T10:38:49.067Z,11.40
2022-10-08T10:39:49.076Z,12.80
2022-10-08T10:40:49.025Z,13.00
2022-10-08T10:41:49.014Z,9.50
2022-10-08T10:42:49.436Z,10.70
2022-10-08T10:43:49.008Z,8.00
2022-10-08T10:44:48.992Z,9.00
2022-10-08T10:45:48.991Z,10.40
2022-10-08T10:46:48.960Z,7.90
2022-10-08T10:47:48.942Z,8.50
2022-10-08T10:48:48.923Z,7.40
2022-10-08T10:49:48.933Z,10.10
2022-10-08T10:50:49.577Z,12.00
2022-10-08T10:51:48.893Z,10.80
2022-10-08T10:52:49.307Z,9.40
2022-10-08T10:53:48.860Z,10.60
2022-10-08T10:54:48.860Z,7.80
2022-10-08T10:55:53.891Z,12.80
2022-10-08T10:56:48.859Z,10.30
2022-10-08T10:57:48.845Z,10.70
2022-10-08T10:58:48.817Z,9.60
2022-10-08T10:59:48.792Z,10.00
2022-10-08T11:00:48.781Z,8.10
2022-10-08T11:01:48.805Z,7.10
2022-10-08T11:02:49.020Z,12.60
2022-10-08T11:03:48.735Z,10.50
2022-10-08T11:04:48.729Z,8.60
2022-10-08T11:05:48.734Z,10.40
2022-10-08T11:06:48.731Z,11.10
2022-10-08T11:07:48.765Z,9.40
2022-10-08T11:08:48.667Z,12.20
2022-10-08T11:09:48.652Z,10.20
2022-10-08T11:10:48.661Z,10.10
2022-10-08T11:11:48.642Z,10.30
2022-10-08T11:12:49.011Z,9.50
2022-10-08T11:13:48.613Z,10.60
2022-10-08T11:14:48.595Z,8.10
2022-10-08T11:15:48.612Z,10.40
2022-10-08T11:16:48.574Z,11.50
2022-10-08T11:17:48.590Z,7.40
2022-10-08T11:18:48.543Z,6.70
2022-10-08T11:19:48.536Z,13.00
2022-10-08T11:20:48.558Z,13.10
2022-10-08T11:21:48.492Z,12.20
2022-10-08T11:22:48.828Z,8.20
2022-10-08T11:23:48.467Z,13.00
2022-10-08T11:24:48.446Z,9.20
2022-10-08T11:26:14.930Z,9.40
2022-10-08T11:26:48.447Z,12.60
2022-10-08T11:27:48.418Z,8.80
2022-10-08T11:28:48.467Z,10.40
2022-10-08T11:29:48.387Z,11.40
2022-10-08T11:30:48.449Z,8.20
2022-10-08T11:31:48.374Z,12.00
2022-10-08T11:32:48.609Z,12.10
2022-10-08T11:33:48.362Z,12.20
2022-10-08T11:34:48.321Z,7.80
2022-10-08T11:35:48.324Z,14.30
2022-10-08T11:36:48.305Z,10.30
2022-10-08T11:37:48.304Z,8.30
2022-10-08T11:38:48.285Z,8.30
2022-10-08T11:39:48.253Z,11.50
2022-10-08T11:40:48.248Z,8.10
2022-10-08T11:41:48.256Z,10.10
2022-10-08T11:42:48.976Z,9.70
2022-10-08T11:43:48.219Z,9.80
2022-10-08T11:44:48.232Z,10.30
2022-10-08T11:45:48.180Z,9.70
2022-10-08T11:46:48.189Z,13.30
2022-10-08T11:47:48.152Z,9.90
2022-10-08T11:48:48.142Z,13.80
2022-10-08T11:49:48.134Z,11.10
2022-10-08T11:50:48.117Z,9.00
2022-10-08T11:51:48.111Z,14.40
2022-10-08T11:52:48.548Z,11.00
2022-10-08T11:53:48.070Z,10.70
2022-10-08T11:54:51.694Z,11.50
2022-10-08T11:55:48.054Z,8.20
2022-10-08T11:56:48.042Z,11.90
2022-10-08T11:58:07.226Z,10.60
2022-10-08T11:58:48.054Z,10.50
2022-10-08T11:59:48.000Z,11.20
2022-10-08T12:00:47.996Z,11.50
2022-10-08T12:01:47.984Z,9.50
2022-10-08T12:02:48.283Z,8.70
2022-10-08T12:03:48.026Z,11.60
2022-10-08T12:04:47.963Z,12.50
2022-10-08T12:05:50.327Z,12.70
2022-10-08T12:06:47.923Z,10.90
2022-10-08T12:07:47.930Z,12.40
2022-10-08T12:08:47.964Z,13.30
2022-10-08T12:09:47.869Z,9.30
2022-10-08T12:11:01.635Z,13.50
2022-10-08T12:11:56.975Z,9.70
2022-10-08T12:12:48.325Z,10.70
2022-10-08T12:13:47.863Z,13.80
2022-10-08T12:14:48.434Z,9.00
2022-10-08T12:15:47.814Z,9.00
2022-10-08T12:16:48.617Z,12.10
2022-10-08T12:17:47.762Z,10.70
2022-10-08T12:18:47.917Z,9.90
2022-10-08T12:19:47.806Z,12.70
2022-10-08T12:20:47.870Z,11.10
2022-10-08T12:21:47.703Z,12.20
2022-10-08T12:22:47.965Z,17.30
2022-10-08T12:23:47.750Z,10.00
2022-10-08T12:24:50.534Z,12.30
2022-10-08T12:25:47.687Z,14.30
2022-10-08T12:26:47.642Z,10.20
2022-10-08T12:27:47.650Z,13.20
2022-10-08T12:28:47.734Z,14.40
2022-10-08T12:29:47.641Z,13.10
2022-10-08T12:30:47.613Z,12.40
2022-10-08T12:31:49.646Z,10.00
2022-10-08T12:32:47.818Z,11.60
2022-10-08T12:33:47.574Z,14.30
2022-10-08T12:34:47.538Z,17.10
2022-10-08T12:35:47.593Z,12.50
2022-10-08T12:36:47.520Z,13.20
2022-10-08T12:37:47.799Z,12.10
2022-10-08T12:38:47.504Z,11.60
2022-10-08T12:39:47.499Z,10.90
2022-10-08T12:40:49.177Z,11.60
2022-10-08T12:41:49.133Z,10.20
2022-10-08T12:42:47.446Z,9.90
2022-10-08T12:43:48.392Z,11.00
2022-10-08T12:44:47.484Z,10.90
2022-10-08T12:45:47.432Z,14.30
2022-10-08T12:46:51.798Z,8.10
2022-10-08T12:47:51.411Z,13.80
2022-10-08T12:48:47.406Z,14.80
2022-10-08T12:49:47.361Z,11.30
2022-10-08T12:50:47.330Z,9.40
2022-10-08T12:51:47.380Z,16.70
2022-10-08T12:52:47.315Z,13.60
2022-10-08T12:53:47.295Z,11.90
2022-10-08T12:54:47.616Z,10.50
2022-10-08T12:55:47.268Z,11.20
2022-10-08T12:56:47.258Z,11.30
2022-10-08T12:57:47.644Z,9.40
2022-10-08T12:58:50.057Z,10.90
2022-10-08T12:59:47.303Z,11.00
2022-10-08T13:00:47.274Z,12.80
2022-10-08T13:01:47.269Z,12.80
2022-10-08T13:02:47.245Z,13.90
2022-10-08T13:03:48.156Z,9.70
2022-10-08T13:04:48.124Z,9.80
2022-10-08T13:05:47.152Z,11.70
2022-10-08T13:06:47.142Z,10.40
2022-10-08T13:07:47.362Z,11.60
2022-10-08T13:08:47.112Z,14.10
2022-10-08T13:09:47.095Z,11.60
2022-10-08T13:10:47.208Z,15.10
2022-10-08T13:11:50.834Z,12.10
2022-10-08T13:12:47.078Z,13.40
2022-10-08T13:13:47.070Z,13.20
2022-10-08T13:14:47.028Z,14.20
2022-10-08T13:15:47.082Z,11.00
2022-10-08T13:16:47.020Z,11.50
2022-10-08T13:17:47.298Z,11.80
2022-10-08T13:18:47.004Z,12.40
2022-10-08T13:19:46.968Z,11.40
2022-10-08T13:20:46.961Z,11.50
2022-10-08T13:21:46.930Z,15.30
2022-10-08T13:22:46.973Z,16.80
2022-10-08T13:23:46.921Z,16.20
2022-10-08T13:24:46.891Z,13.50
2022-10-08T13:25:46.925Z,11.30
2022-10-08T13:26:46.926Z,11.90
2022-10-08T13:27:47.222Z,16.00
2022-10-08T13:28:59.792Z,10.80
2022-10-08T13:29:46.872Z,13.50
2022-10-08T13:30:46.831Z,14.50
2022-10-08T13:31:46.893Z,12.80
2022-10-08T13:32:46.793Z,14.20
2022-10-08T13:33:46.768Z,13.90
2022-10-08T13:34:46.757Z,12.60
2022-10-08T13:35:46.749Z,13.30
2022-10-08T13:36:46.774Z,14.10
2022-10-08T13:37:48.786Z,11.40
2022-10-08T13:38:46.721Z,12.60
2022-10-08T13:39:46.695Z,15.80
2022-10-08T13:40:47.366Z,12.10
2022-10-08T13:41:50.362Z,13.60
2022-10-08T13:42:46.697Z,12.20
2022-10-08T13:43:46.644Z,14.60
2022-10-08T13:44:46.632Z,17.20
2022-10-08T13:45:46.639Z,13.50
2022-10-08T13:46:46.672Z,11.80
2022-10-08T13:47:46.987Z,14.60
2022-10-08T13:48:46.581Z,19.00
2022-10-08T13:49:46.592Z,14.30
2022-10-08T13:50:46.557Z,15.90
2022-10-08T13:51:46.535Z,18.80
2022-10-08T13:52:46.538Z,19.10
2022-10-08T13:53:46.521Z,19.40
2022-10-08T13:54:46.510Z,19.20
2022-10-08T13:55:46.483Z,14.70
2022-10-08T13:56:46.489Z,15.20
2022-10-08T13:57:46.812Z,15.20
2022-10-08T13:58:46.453Z,15.10
2022-10-08T13:59:46.468Z,15.90
2022-10-08T14:00:46.445Z,14.90
2022-10-08T14:01:48.724Z,14.40
2022-10-08T14:02:46.554Z,16.40
2022-10-08T14:03:47.255Z,16.50
2022-10-08T14:04:46.403Z,18.30
2022-10-08T14:05:46.363Z,16.00
2022-10-08T14:06:47.006Z,15.40
2022-10-08T14:07:46.711Z,18.20
2022-10-08T14:08:46.932Z,17.70
2022-10-08T14:09:47.054Z,20.60
2022-10-08T14:10:46.342Z,16.70
2022-10-08T14:11:46.342Z,17.10
2022-10-08T14:12:46.299Z,21.70
2022-10-08T14:13:52.759Z,23.50
2022-10-08T14:14:47.807Z,17.20
2022-10-08T14:15:46.828Z,17.30
2022-10-08T14:16:46.283Z,21.60
2022-10-08T14:17:46.533Z,21.30
2022-10-08T14:18:46.204Z,17.20
2022-10-08T14:19:46.207Z,17.00
2022-10-08T14:20:46.158Z,20.60
2022-10-08T14:21:46.152Z,18.70
2022-10-08T14:22:46.133Z,17.00
2022-10-08T14:23:46.124Z,18.40
2022-10-08T14:24:46.120Z,17.60
2022-10-08T14:25:46.094Z,19.40
2022-10-08T14:26:46.087Z,19.70
2022-10-08T14:27:46.448Z,21.20
2022-10-08T14:28:46.112Z,19.80
2022-10-08T14:29:46.156Z,19.10
2022-10-08T14:30:46.032Z,18.30
2022-10-08T14:31:46.105Z,19.00
2022-10-08T14:32:46.016Z,16.10
2022-10-08T14:33:45.994Z,19.30
2022-10-08T14:34:46.001Z,19.60
2022-10-08T14:35:45.960Z,21.70
2022-10-08T14:36:45.947Z,18.50
2022-10-08T14:37:46.285Z,17.20
2022-10-08T14:38:45.939Z,18.70
2022-10-08T14:39:45.963Z,20.50
2022-10-08T14:40:45.909Z,19.20
2022-10-08T14:41:45.969Z,20.00
2022-10-08T14:42:46.291Z,18.00
2022-10-08T14:43:45.860Z,18.00
2022-10-08T14:44:45.854Z,18.50
2022-10-08T14:45:45.876Z,17.90
2022-10-08T14:46:45.819Z,16.30
2022-10-08T14:47:45.818Z,21.40
2022-10-08T14:48:45.795Z,17.40
2022-10-08T14:49:45.817Z,19.60
2022-10-08T14:50:45.786Z,17.00
2022-10-08T14:51:45.752Z,20.00
2022-10-08T14:52:46.183Z,18.80
2022-10-08T14:53:45.729Z,22.50
2022-10-08T14:54:45.745Z,18.40
2022-10-08T14:56:07.816Z,23.70
2022-10-08T14:56:45.710Z,18.30
2022-10-08T14:57:45.673Z,16.90
2022-10-08T14:58:45.672Z,18.80
2022-10-08T14:59:45.726Z,20.00
2022-10-08T15:00:45.652Z,17.40
2022-10-08T15:01:45.671Z,17.20
2022-10-08T15:02:45.801Z,17.60
2022-10-08T15:03:45.722Z,15.10
2022-10-08T15:04:45.587Z,17.50
2022-10-08T15:05:45.573Z,15.30
2022-10-08T15:06:45.570Z,16.10
2022-10-08T15:07:45.881Z,14.60
2022-10-08T15:08:45.548Z,14.40
2022-10-08T15:09:45.520Z,15.80
2022-10-08T15:10:45.512Z,14.40
2022-10-08T15:11:45.530Z,15.00
2022-10-08T15:12:45.869Z,13.70
2022-10-08T15:13:45.491Z,16.40
2022-10-08T15:14:45.459Z,19.40
2022-10-08T15:15:45.443Z,21.10
2022-10-08T15:16:45.466Z,19.10
2022-10-08T15:17:45.831Z,19.40
2022-10-08T15:18:45.414Z,18.40
2022-10-08T15:19:45.386Z,16.80
2022-10-08T15:20:45.374Z,16.60
2022-10-08T15:21:45.394Z,19.80
2022-10-08T15:22:45.687Z,16.10
2022-10-08T15:23:45.355Z,20.40
2022-10-08T15:24:45.338Z,21.10
2022-10-08T15:25:45.315Z,25.20
2022-10-08T15:26:45.320Z,22.70
2022-10-08T15:27:45.328Z,19.90
2022-10-08T15:28:45.338Z,20.60
2022-10-08T15:29:45.256Z,15.10
2022-10-08T15:30:45.248Z,18.60
2022-10-08T15:31:45.297Z,18.40
2022-10-08T15:32:45.526Z,17.10
2022-10-08T15:33:45.225Z,20.40
2022-10-08T15:34:45.194Z,15.60
2022-10-08T15:35:45.196Z,18.10
2022-10-08T15:36:45.167Z,16.70
2022-10-08T15:37:45.183Z,16.70
2022-10-08T15:38:45.175Z,17.60
2022-10-08T15:39:45.161Z,16.50
2022-10-08T15:40:45.116Z,16.00
2022-10-08T15:41:45.101Z,17.40
2022-10-08T15:42:45.423Z,20.40
2022-10-08T15:43:45.099Z,18.20
2022-10-08T15:44:45.067Z,16.90
2022-10-08T15:45:45.098Z,17.20
2022-10-08T15:46:45.038Z,17.90
2022-10-08T15:47:45.033Z,19.70
2022-10-08T15:48:45.018Z,19.70
2022-10-08T15:49:45.000Z,16.80
2022-10-08T15:50:44.993Z,19.20
2022-10-08T15:51:45.003Z,20.90
2022-10-08T15:52:46.471Z,23.50
2022-10-08T15:53:44.963Z,18.30
2022-10-08T15:54:44.933Z,22.30
2022-10-08T15:55:44.928Z,22.30
2022-10-08T15:56:44.932Z,22.10
2022-10-08T15:57:44.894Z,20.50
2022-10-08T15:58:52.252Z,19.70
2022-10-08T15:59:44.886Z,21.10
2022-10-08T16:00:44.937Z,21.30
2022-10-08T16:01:44.845Z,21.30
2022-10-08T16:02:45.129Z,20.30
2022-10-08T16:03:44.837Z,24.00
2022-10-08T16:04:44.823Z,22.10
2022-10-08T16:05:44.809Z,26.10
2022-10-08T16:06:44.773Z,21.00
2022-10-08T16:07:44.768Z,26.40
2022-10-08T16:08:44.766Z,24.70
2022-10-08T16:09:44.764Z,21.80
2022-10-08T16:10:44.721Z,23.10
2022-10-08T16:11:44.720Z,24.30
2022-10-08T16:12:44.998Z,28.10
2022-10-08T16:13:44.692Z,26.30
2022-10-08T16:14:44.686Z,25.50
2022-10-08T16:15:44.669Z,26.70
2022-10-08T16:16:44.701Z,24.00
2022-10-08T16:17:44.636Z,27.30
2022-10-08T16:18:44.619Z,26.40
2022-10-08T16:19:44.617Z,30.20
2022-10-08T16:20:46.395Z,31.00
2022-10-08T16:21:44.582Z,31.90
2022-10-08T16:22:44.602Z,32.60
2022-10-08T16:23:44.556Z,35.50
2022-10-08T16:24:44.550Z,38.30
2022-10-08T16:25:45.587Z,35.10
2022-10-08T16:26:44.511Z,35.90
2022-10-08T16:27:44.521Z,34.70
2022-10-08T16:28:44.562Z,38.50
2022-10-08T16:29:44.524Z,39.10
2022-10-08T16:30:44.534Z,35.20
2022-10-08T16:31:44.456Z,33.20
2022-10-08T16:32:44.501Z,32.10
2022-10-08T16:33:44.433Z,29.30
2022-10-08T16:34:45.618Z,24.60
2022-10-08T16:35:44.420Z,26.90
2022-10-08T16:36:44.408Z,28.10
2022-10-08T16:37:44.373Z,27.30
2022-10-08T16:38:44.361Z,31.60
2022-10-08T16:39:44.365Z,26.90
2022-10-08T16:40:44.356Z,28.80
2022-10-08T16:41:44.320Z,27.30
2022-10-08T16:42:44.344Z,25.40
2022-10-08T16:43:44.335Z,27.10
2022-10-08T16:44:44.282Z,24.60
2022-10-08T16:45:44.334Z,20.50
2022-10-08T16:46:44.257Z,28.00
2022-10-08T16:47:44.248Z,25.80
2022-10-08T16:48:44.281Z,27.60
2022-10-08T16:49:44.233Z,26.30
2022-10-08T16:50:44.241Z,30.90
2022-10-08T16:51:44.208Z,27.10
2022-10-08T16:52:44.174Z,30.60
2022-10-08T16:53:44.190Z,29.10
2022-10-08T16:54:44.165Z,25.30
2022-10-08T16:55:44.140Z,27.20
2022-10-08T16:56:44.162Z,31.70
2022-10-08T16:57:44.289Z,29.20
2022-10-08T16:58:44.113Z,24.90
2022-10-08T16:59:44.102Z,27.10
2022-10-08T17:00:44.075Z,25.70
2022-10-08T17:01:44.239Z,30.00
2022-10-08T17:02:44.136Z,25.70
2022-10-08T17:03:44.048Z,27.00
2022-10-08T17:04:44.039Z,21.90
2022-10-08T17:05:44.010Z,26.20
2022-10-08T17:06:43.999Z,31.20
2022-10-08T17:07:43.997Z,27.30
2022-10-08T17:08:43.987Z,23.60
2022-10-08T17:09:44.000Z,25.60
2022-10-08T17:10:43.962Z,24.90
2022-10-08T17:11:44.882Z,25.30
2022-10-08T17:12:43.923Z,28.50
2022-10-08T17:13:43.927Z,27.30
2022-10-08T17:14:43.903Z,23.10
2022-10-08T17:15:43.877Z,26.30
2022-10-08T17:16:43.951Z,24.90
2022-10-08T17:17:43.894Z,25.60
2022-10-08T17:18:43.839Z,24.00
2022-10-08T17:19:43.836Z,25.30
2022-10-08T17:20:43.827Z,23.90
2022-10-08T17:21:43.800Z,22.60
2022-10-08T17:22:43.803Z,24.30
2022-10-08T17:23:43.781Z,23.70
2022-10-08T17:24:43.758Z,37.60
2022-10-08T17:25:43.758Z,27.30
2022-10-08T17:26:43.744Z,27.20
2022-10-08T17:27:43.744Z,25.00
2022-10-08T17:28:43.896Z,21.90
2022-10-08T17:29:43.695Z,22.70
2022-10-08T17:30:43.753Z,20.00
2022-10-08T17:31:43.674Z,18.60
2022-10-08T17:32:43.672Z,21.80
2022-10-08T17:33:43.681Z,18.30
2022-10-08T17:34:43.635Z,18.30
2022-10-08T17:35:43.623Z,18.90
2022-10-08T17:36:44.272Z,20.10
2022-10-08T17:37:43.595Z,17.60
2022-10-08T17:38:43.579Z,20.70
2022-10-08T17:39:43.571Z,18.50
2022-10-08T17:40:43.561Z,19.00
2022-10-08T17:41:43.547Z,20.00
2022-10-08T17:42:43.538Z,17.60
2022-10-08T17:43:43.515Z,20.70
2022-10-08T17:44:43.504Z,19.80
2022-10-08T17:45:43.543Z,17.10
2022-10-08T17:46:43.467Z,15.60
2022-10-08T17:47:43.474Z,18.30
2022-10-08T17:48:43.461Z,16.30
2022-10-08T17:49:43.445Z,18.30
2022-10-08T17:50:43.416Z,16.90
2022-10-08T17:51:43.413Z,15.90
2022-10-08T17:52:43.392Z,21.10
2022-10-08T17:53:43.383Z,20.00
2022-10-08T17:54:43.371Z,20.90
2022-10-08T17:55:43.366Z,22.70
2022-10-08T17:56:43.341Z,21.90
2022-10-08T17:57:43.348Z,19.40
2022-10-08T17:58:43.311Z,17.80
2022-10-08T17:59:43.305Z,17.30
2022-10-08T18:00:43.313Z,15.40
2022-10-08T18:01:45.235Z,22.60
2022-10-08T18:02:43.349Z,14.40
2022-10-08T18:03:43.300Z,19.20
2022-10-08T18:04:43.248Z,15.00
2022-10-08T18:05:43.389Z,13.30
2022-10-08T18:06:43.216Z,16.70
2022-10-08T18:07:43.207Z,13.20
2022-10-08T18:08:43.193Z,13.40
2022-10-08T18:09:43.180Z,14.20
2022-10-08T18:10:43.175Z,12.20
2022-10-08T18:11:43.155Z,12.80
2022-10-08T18:12:43.137Z,13.80
2022-10-08T18:13:43.129Z,12.00
2022-10-08T18:14:43.728Z,14.90
2022-10-08T18:15:43.153Z,16.00
2022-10-08T18:16:47.646Z,14.10
2022-10-08T18:17:43.100Z,13.50
2022-10-08T18:18:43.060Z,14.10
2022-10-08T18:19:43.914Z,12.30
2022-10-08T18:20:43.033Z,14.90
2022-10-08T18:21:43.054Z,15.00
2022-10-08T18:22:43.109Z,12.60
2022-10-08T18:23:43.139Z,13.00
2022-10-08T18:24:43.124Z,13.00
2022-10-08T18:25:43.050Z,12.00
2022-10-08T18:26:42.946Z,15.20
2022-10-08T18:27:42.969Z,12.80
2022-10-08T18:28:42.985Z,14.40
2022-10-08T18:29:42.983Z,15.70
2022-10-08T18:30:43.041Z,15.60
2022-10-08T18:31:42.885Z,14.60
2022-10-08T18:32:42.879Z,14.20
2022-10-08T18:33:42.867Z,24.30
2022-10-08T18:34:42.842Z,19.40
2022-10-08T18:35:42.946Z,20.30
2022-10-08T18:36:42.947Z,17.10
2022-10-08T18:37:42.941Z,16.90
2022-10-08T18:38:42.800Z,21.80